Time;durP1;ratioP1;P1;durP2;ratioP2;P2;SDS_P1;SDS_P2;PMS_P1;PMS_P2;Temp;Humidity;BMP_temperature;BMP_pressure;BME280_temperature;BME280_humidity;BME280_pressure;Samples;Min_cycle;Max_cycle;Signal;HPM_P1;HPM_P2
2023/10/04 00:00:20;;;;;;;0.70;0.70;;;;;;;16.19;73.79;96147.97;5135055;27;20526;-61
2023/10/04 00:02:52;;;;;;;0.60;0.40;;;;;;;16.22;73.91;96140.16;5134899;27;20470;-61
2023/10/04 00:05:25;;;;;;;0.77;0.57;;;;;;;16.08;74.36;96143.78;5134291;27;20474;-61
2023/10/04 00:07:55;;;;;;;1.70;1.60;;;;;;;16.18;74.52;96144.50;5134305;27;20487;-61
2023/10/04 00:10:25;;;;;;;0.50;0.40;;;;;;;16.07;75.15;96148.34;5134426;27;20514;-62
2023/10/04 00:12:54;;;;;;;0.60;0.33;;;;;;;15.97;75.55;96136.94;5134666;27;20578;-61
2023/10/04 00:15:25;;;;;;;1.33;0.50;;;;;;;16.00;76.17;96136.38;5135040;27;20473;-61
2023/10/04 00:17:55;;;;;;;0.70;0.50;;;;;;;16.04;75.81;96132.84;5107763;27;20449;-61
2023/10/04 00:20:31;;;;;;;4.03;0.40;;;;;;;15.82;75.09;96087.91;5134651;27;20466;-61
2023/10/04 00:23:04;;;;;;;0.50;0.30;;;;;;;16.12;75.42;96129.56;5134704;27;20435;-61
2023/10/04 00:25:34;;;;;;;0.50;0.30;;;;;;;16.24;74.19;96126.50;5135038;27;20435;-61
2023/10/04 00:28:03;;;;;;;0.50;0.40;;;;;;;16.32;73.29;96129.34;5134802;27;20864;-61
2023/10/04 00:30:32;;;;;;;0.60;0.40;;;;;;;16.20;74.03;96126.28;5134330;27;20430;-61
2023/10/04 00:33:02;;;;;;;0.60;0.30;;;;;;;16.08;74.57;96127.75;5134531;27;20439;-62
2023/10/04 00:35:33;;;;;;;1.03;1.03;;;;;;;15.97;76.15;96136.94;5134553;27;20493;-61
2023/10/04 00:38:01;;;;;;;1.00;0.40;;;;;;;16.05;75.20;96123.75;5134434;27;20564;-62
2023/10/04 00:40:31;;;;;;;0.97;0.83;;;;;;;16.16;74.34;96121.78;5134634;27;20939;-62
2023/10/04 00:43:02;;;;;;;0.60;0.60;;;;;;;15.76;74.85;96088.25;5134146;27;20435;-61
2023/10/04 00:45:32;;;;;;;0.80;0.50;;;;;;;16.05;75.02;96130.97;5134086;27;20831;-61
2023/10/04 00:48:04;;;;;;;0.60;0.60;;;;;;;15.86;74.23;96091.59;5133971;27;20445;-60
2023/10/04 00:50:35;;;;;;;0.60;0.47;;;;;;;16.03;74.06;96112.56;5134105;27;20439;-61
2023/10/04 00:53:07;;;;;;;0.40;0.20;;;;;;;15.76;75.71;96112.31;5134139;27;20430;-64
2023/10/04 00:55:39;;;;;;;0.67;0.50;;;;;;;15.90;75.14;96121.25;5134008;27;20562;-61
2023/10/04 00:58:09;;;;;;;0.40;0.30;;;;;;;15.83;75.40;96121.59;5133334;27;20442;-60
2023/10/04 01:00:39;;;;;;;0.90;0.70;;;;;;;15.83;75.69;96123.47;5134199;27;20815;-61
2023/10/04 01:03:09;;;;;;;0.70;0.70;;;;;;;15.64;75.92;96095.84;5132638;27;20481;-60
2023/10/04 01:05:46;;;;;;;0.50;0.47;;;;;;;15.44;78.23;96095.97;5133946;27;20427;-61
2023/10/04 01:08:16;;;;;;;0.70;0.70;;;;;;;14.93;84.28;96107.06;5108906;27;20445;-60
2023/10/04 01:10:46;;;;;;;0.60;0.50;;;;;;;14.92;86.38;96116.16;5133503;27;20464;-61
2023/10/04 01:13:17;;;;;;;0.70;0.40;;;;;;;15.09;83.82;96105.09;5133748;27;20438;-61
2023/10/04 01:15:46;;;;;;;0.60;0.40;;;;;;;15.24;82.98;96124.47;5133079;27;20538;-61
2023/10/04 01:18:16;;;;;;;0.60;0.40;;;;;;;15.17;82.67;96129.34;5133434;27;20438;-60
2023/10/04 01:20:46;;;;;;;3.80;0.73;;;;;;;15.21;81.90;96133.03;5132658;27;20436;-60
2023/10/04 01:23:16;;;;;;;4.73;0.73;;;;;;;15.18;81.10;96127.44;5133448;27;21027;-60
2023/10/04 01:25:47;;;;;;;2.17;0.70;;;;;;;15.12;81.21;96128.56;5133421;27;20435;-60
2023/10/04 01:28:26;;;;;;;0.50;0.30;;;;;;;15.06;80.93;96137.66;5132797;27;20430;-60
2023/10/04 01:30:57;;;;;;;4.90;0.70;;;;;;;15.07;80.78;96133.94;5133692;27;20441;-60
2023/10/04 01:33:26;;;;;;;4.50;0.60;;;;;;;15.10;80.41;96131.50;5133144;27;20431;-60
2023/10/04 01:35:55;;;;;;;1.50;1.03;;;;;;;15.07;80.60;96118.72;5133142;27;20546;-60
2023/10/04 01:38:27;;;;;;;0.50;0.40;;;;;;;15.03;81.64;96133.69;5132880;27;20445;-60
2023/10/04 01:40:56;;;;;;;2.30;1.97;;;;;;;14.60;81.00;96054.41;5133009;27;20465;-60
2023/10/04 01:43:25;;;;;;;0.60;0.50;;;;;;;15.20;80.31;96126.09;5118892;27;20838;-59
2023/10/04 01:45:57;;;;;;;0.40;0.20;;;;;;;14.52;80.28;96012.34;5133522;27;20439;-60
2023/10/04 01:48:30;;;;;;;0.60;0.50;;;;;;;15.07;81.03;96128.59;5133034;27;20439;-61
2023/10/04 01:51:02;;;;;;;1.93;0.43;;;;;;;15.06;80.80;96143.00;5133364;27;20438;-60
2023/10/04 01:53:34;;;;;;;0.50;0.50;;;;;;;14.29;82.22;96043.13;5133379;27;20471;-60
2023/10/04 01:56:06;;;;;;;0.80;0.60;;;;;;;14.91;82.36;96133.22;5132652;27;20481;-60
2023/10/04 01:58:37;;;;;;;0.40;0.30;;;;;;;15.07;81.34;96129.41;5133028;27;20517;-60
2023/10/04 02:01:08;;;;;;;0.40;0.30;;;;;;;14.85;79.96;96070.25;5132539;27;20430;-60
2023/10/04 02:03:37;;;;;;;1.37;1.27;;;;;;;15.24;80.11;96124.47;5132175;27;20462;-60
2023/10/04 02:06:07;;;;;;;0.67;0.67;;;;;;;15.19;79.83;96110.34;5132400;27;20526;-60
2023/10/04 02:08:39;;;;;;;1.53;0.37;;;;;;;15.08;81.24;96125.63;5125192;27;20488;-61
2023/10/04 02:11:08;;;;;;;0.60;0.40;;;;;;;15.12;81.20;96123.22;5131571;27;20518;-60
2023/10/04 02:13:37;;;;;;;0.87;0.60;;;;;;;15.06;82.25;96127.78;5132494;27;20557;-61
2023/10/04 02:16:06;;;;;;;0.70;0.33;;;;;;;15.21;80.19;96125.00;5132663;27;20471;-60
2023/10/04 02:18:34;;;;;;;0.93;0.87;;;;;;;14.58;83.24;96077.91;5132717;27;20442;-60
2023/10/04 02:21:03;;;;;;;1.53;0.97;;;;;;;14.95;82.17;96120.91;5132731;27;20439;-60
2023/10/04 02:23:32;;;;;;;1.17;1.17;;;;;;;15.01;81.96;96114.47;5132139;27;20980;-60
2023/10/04 02:26:04;;;;;;;0.50;0.33;;;;;;;15.12;80.89;96125.88;5132339;27;20442;-61
2023/10/04 02:28:33;;;;;;;0.40;0.30;;;;;;;15.19;81.13;96126.38;5132185;27;20474;-60
2023/10/04 02:31:02;;;;;;;0.40;0.30;;;;;;;15.13;81.16;96116.78;5132278;28;20463;-60
2023/10/04 02:33:34;;;;;;;4.23;0.40;;;;;;;14.99;82.59;96127.31;5131985;28;20931;-59
2023/10/04 02:36:07;;;;;;;0.97;0.97;;;;;;;15.14;81.65;96126.41;5130030;28;20562;-60
2023/10/04 02:38:36;;;;;;;0.67;0.40;;;;;;;14.71;83.22;96093.31;5132202;28;20482;-60
2023/10/04 02:41:06;;;;;;;0.40;0.30;;;;;;;14.88;83.24;96128.44;5132614;27;20529;-60
2023/10/04 02:43:35;;;;;;;0.50;0.50;;;;;;;15.02;82.24;96126.75;5132733;28;20525;-60
2023/10/04 02:46:04;;;;;;;1.90;0.60;;;;;;;15.00;82.06;96128.88;5130920;28;20797;-60
2023/10/04 02:48:35;;;;;;;1.17;1.07;;;;;;;14.87;83.59;96129.53;5131790;28;20443;-60
2023/10/04 02:51:05;;;;;;;0.50;0.40;;;;;;;14.90;83.13;96123.63;5131526;28;20466;-61
2023/10/04 02:53:37;;;;;;;0.87;0.87;;;;;;;15.01;81.40;96124.34;5131427;28;20442;-60
2023/10/04 02:56:09;;;;;;;0.50;0.50;;;;;;;15.03;81.31;96123.00;5131204;28;20836;-60
2023/10/04 02:58:38;;;;;;;0.50;0.30;;;;;;;14.87;82.00;96120.72;5132351;27;20436;-60
2023/10/04 03:01:08;;;;;;;0.70;0.30;;;;;;;14.58;82.39;96075.25;5132270;28;20525;-60
2023/10/04 03:03:37;;;;;;;0.90;0.60;;;;;;;14.97;80.90;96124.13;5131178;28;20550;-60
2023/10/04 03:06:06;;;;;;;2.30;0.50;;;;;;;14.61;81.09;96082.69;5131707;27;20959;-60
2023/10/04 03:08:35;;;;;;;0.67;0.63;;;;;;;14.85;81.45;96114.88;5131790;28;20474;-60
2023/10/04 03:11:03;;;;;;;0.60;0.50;;;;;;;14.55;84.78;96121.13;5131709;27;20434;-60
2023/10/04 03:13:34;;;;;;;0.50;0.40;;;;;;;14.71;82.26;96104.00;5132107;28;20435;-59
2023/10/04 03:16:06;;;;;;;1.00;0.60;;;;;;;14.74;82.74;96108.78;5131104;28;20978;-61
2023/10/04 03:18:37;;;;;;;0.70;0.60;;;;;;;14.88;81.92;96116.97;5131730;27;20928;-60
2023/10/04 03:21:10;;;;;;;5.30;0.33;;;;;;;14.53;83.70;96115.28;5131863;28;20491;-60
2023/10/04 03:23:41;;;;;;;0.60;0.30;;;;;;;14.26;86.87;96107.66;5131607;28;20499;-60
2023/10/04 03:26:12;;;;;;;0.70;0.50;;;;;;;14.44;85.95;96111.59;5131901;27;20457;-60
2023/10/04 03:28:42;;;;;;;0.50;0.37;;;;;;;14.60;83.96;96103.25;5131594;28;20449;-59
2023/10/04 03:31:14;;;;;;;4.50;0.60;;;;;;;14.60;84.15;96110.44;5131281;28;20486;-60
2023/10/04 03:33:44;;;;;;;0.77;0.30;;;;;;;14.50;84.89;96097.97;5131510;28;20443;-60
2023/10/04 03:36:17;;;;;;;0.40;0.30;;;;;;;14.24;83.83;96045.81;5131373;28;20474;-60
2023/10/04 03:38:49;;;;;;;0.97;0.43;;;;;;;14.44;84.83;96109.75;5131688;27;20435;-60
2023/10/04 03:41:19;;;;;;;0.83;0.70;;;;;;;14.32;86.44;96109.25;5134822;27;20864;-60
2023/10/04 03:43:49;;;;;;;0.70;0.63;;;;;;;14.56;84.00;96107.53;5135295;27;20449;-61
2023/10/04 03:46:18;;;;;;;0.70;0.50;;;;;;;14.64;83.32;96106.16;5134957;27;20957;-61
2023/10/04 03:48:48;;;;;;;1.43;1.43;;;;;;;14.45;86.12;96110.50;5135654;27;20439;-60
2023/10/04 03:51:21;;;;;;;1.53;0.57;;;;;;;14.17;89.10;96114.59;5135818;27;20821;-60
2023/10/04 03:53:53;;;;;;;2.20;0.87;;;;;;;13.22;91.68;96006.41;5135213;27;20437;-60
2023/10/04 03:56:25;;;;;;;1.03;1.00;;;;;;;13.54;94.90;96104.63;5135458;27;20543;-60
2023/10/04 03:58:58;;;;;;;0.50;0.40;;;;;;;13.50;95.90;96119.53;5134826;27;20457;-60
2023/10/04 04:01:27;;;;;;;3.20;1.10;;;;;;;13.12;96.38;96068.44;5134681;27;20460;-61
2023/10/04 04:04:02;;;;;;;0.70;0.40;;;;;;;13.33;96.97;96117.94;5135113;27;20427;-60
2023/10/04 04:06:31;;;;;;;4.90;0.53;;;;;;;13.24;100.00;96118.75;5134792;27;20972;-60
2023/10/04 04:09:03;;;;;;;1.53;0.60;;;;;;;13.38;97.43;96114.50;5134336;27;20448;-59
2023/10/04 04:11:32;;;;;;;1.53;1.43;;;;;;;13.06;100.00;96116.56;5134480;27;20446;-59
2023/10/04 04:14:02;;;;;;;3.13;0.70;;;;;;;13.28;100.00;96123.28;5107994;27;20458;-58
2023/10/04 04:16:33;;;;;;;1.70;1.27;;;;;;;13.21;100.00;96127.25;5134772;27;20474;-59
2023/10/04 04:19:02;;;;;;;1.00;0.80;;;;;;;13.09;100.00;96124.06;5134563;27;20529;-58
2023/10/04 04:21:33;;;;;;;0.57;0.50;;;;;;;12.98;100.00;96130.41;5134663;27;20443;-58
2023/10/04 04:24:02;;;;;;;0.73;0.73;;;;;;;12.83;100.00;96130.38;5134370;27;20449;-59
2023/10/04 04:26:30;;;;;;;1.07;0.57;;;;;;;12.87;100.00;96137.59;5134131;27;20514;-58
2023/10/04 04:28:59;;;;;;;0.50;0.47;;;;;;;12.96;100.00;96132.53;5134327;27;20507;-59
2023/10/04 04:31:29;;;;;;;0.97;0.57;;;;;;;12.64;100.00;96080.34;5134318;27;20427;-59
2023/10/04 04:33:58;;;;;;;0.87;0.87;;;;;;;12.99;100.00;96137.31;5134080;27;20508;-59
2023/10/04 04:36:27;;;;;;;0.77;0.60;;;;;;;13.29;99.40;96130.19;5134563;27;20501;-62
2023/10/04 04:38:56;;;;;;;0.50;0.33;;;;;;;13.35;98.40;96137.13;5133480;27;20442;-60
2023/10/04 04:41:26;;;;;;;0.50;0.30;;;;;;;13.35;98.02;96131.00;5133426;27;20450;-59
2023/10/04 04:43:56;;;;;;;0.70;0.50;;;;;;;13.43;97.03;96135.81;5132996;27;20493;-58
2023/10/04 04:46:24;;;;;;;1.47;0.83;;;;;;;13.31;98.36;96133.38;5107553;27;20449;-58
2023/10/04 04:48:55;;;;;;;0.60;0.60;;;;;;;12.98;100.00;96144.50;5133832;27;20470;-59
2023/10/04 04:51:24;;;;;;;0.80;0.70;;;;;;;12.85;100.00;96147.66;5133378;27;20474;-59
2023/10/04 04:53:53;;;;;;;2.87;0.80;;;;;;;13.13;100.00;96144.56;5133270;27;20521;-59
2023/10/04 04:56:23;;;;;;;0.60;0.57;;;;;;;13.16;100.00;96146.69;5133765;27;20469;-58
2023/10/04 04:58:56;;;;;;;0.50;0.30;;;;;;;13.06;97.96;96076.66;5133551;27;21010;-59
2023/10/04 05:01:25;;;;;;;0.70;0.43;;;;;;;13.41;99.03;96153.88;5133788;27;20814;-58
2023/10/04 05:03:56;;;;;;;0.50;0.40;;;;;;;13.29;100.00;96151.50;5133281;27;20445;-60
2023/10/04 05:06:25;;;;;;;2.10;0.60;;;;;;;13.11;100.00;96159.19;5133620;27;20451;-60
2023/10/04 05:08:56;;;;;;;1.57;0.80;;;;;;;13.06;100.00;96145.84;5133669;27;20999;-59
2023/10/04 05:11:26;;;;;;;0.97;0.87;;;;;;;13.48;100.00;96153.63;5133874;27;20442;-59
2023/10/04 05:13:55;;;;;;;1.90;0.60;;;;;;;13.07;99.85;96078.28;5133689;27;20519;-59
2023/10/04 05:16:25;;;;;;;12.63;0.90;;;;;;;13.50;99.34;96146.97;5133606;27;20883;-59
2023/10/04 05:18:55;;;;;;;0.50;0.40;;;;;;;13.76;97.97;96161.88;5133465;27;20533;-59
2023/10/04 05:21:24;;;;;;;0.60;0.50;;;;;;;13.69;97.93;96124.03;5133292;27;20437;-58
2023/10/04 05:23:56;;;;;;;0.50;0.50;;;;;;;13.69;96.25;96107.25;5133450;27;20446;-59
2023/10/04 05:26:25;;;;;;;0.63;0.63;;;;;;;14.18;94.93;96158.88;5133335;27;20439;-59
2023/10/04 05:28:53;;;;;;;0.73;0.57;;;;;;;14.45;93.09;96159.34;5133235;27;20439;-60
2023/10/04 05:31:22;;;;;;;0.70;0.70;;;;;;;14.59;92.66;96160.38;5133019;27;20492;-59
2023/10/04 05:33:50;;;;;;;0.60;0.40;;;;;;;14.76;91.44;96159.19;5133591;27;20434;-59
2023/10/04 05:36:22;;;;;;;0.93;0.93;;;;;;;14.84;88.95;96162.09;5133089;27;20438;-59
2023/10/04 05:38:51;;;;;;;4.43;0.57;;;;;;;14.95;87.15;96160.94;5133540;27;20435;-59
2023/10/04 05:41:19;;;;;;;1.37;0.57;;;;;;;15.15;86.55;96166.16;5132444;27;20977;-56
2023/10/04 05:43:47;;;;;;;1.33;0.80;;;;;;;15.28;84.19;96175.44;5133235;27;20458;-56
2023/10/04 05:46:16;;;;;;;2.10;0.80;;;;;;;15.37;82.96;96162.28;5132456;27;20446;-56
2023/10/04 05:48:45;;;;;;;0.50;0.30;;;;;;;15.55;83.29;96138.41;5133221;27;20818;-56
2023/10/04 05:51:15;;;;;;;0.50;0.30;;;;;;;16.05;80.97;96158.53;5132612;27;20456;-56
2023/10/04 05:53:47;;;;;;;0.60;0.47;;;;;;;16.01;80.26;96167.41;5132575;27;20438;-56
2023/10/04 05:56:19;;;;;;;0.60;0.40;;;;;;;16.54;77.46;96162.84;5107806;27;20435;-57
2023/10/04 05:58:48;;;;;;;0.60;0.50;;;;;;;16.84;76.05;96165.94;5133530;27;20470;-57
2023/10/04 06:01:17;;;;;;;2.20;0.70;;;;;;;17.18;73.30;96165.72;5132136;27;20451;-56
2023/10/04 06:03:46;;;;;;;0.67;0.67;;;;;;;17.60;72.71;96106.69;5131718;27;20450;-57
2023/10/04 06:06:15;;;;;;;0.60;0.60;;;;;;;18.35;69.62;96152.00;5132749;27;20446;-55
2023/10/04 06:08:45;;;;;;;0.80;0.80;;;;;;;18.45;69.20;96164.44;5132589;27;20487;-56
2023/10/04 06:11:14;;;;;;;2.77;0.97;;;;;;;18.17;68.08;96161.72;5132656;27;20431;-57
2023/10/04 06:13:43;;;;;;;1.83;1.40;;;;;;;17.98;68.51;96146.81;5132524;27;20430;-58
2023/10/04 06:16:11;;;;;;;1.47;1.23;;;;;;;18.66;69.48;96155.72;5132609;27;20440;-59
2023/10/04 06:18:41;;;;;;;0.67;0.67;;;;;;;18.62;66.32;96152.03;5132544;27;20470;-59
2023/10/04 06:21:11;;;;;;;13.63;1.80;;;;;;;18.62;66.69;96154.72;5131995;27;20526;-58
2023/10/04 06:23:40;;;;;;;1.70;1.60;;;;;;;18.48;66.27;96113.66;5132488;27;20431;-58
2023/10/04 06:26:10;;;;;;;2.40;2.20;;;;;;;18.61;66.21;96136.22;5132479;27;20443;-58
2023/10/04 06:28:39;;;;;;;4.70;2.50;;;;;;;18.36;66.26;96151.72;5106389;28;20793;-58
2023/10/04 06:31:08;;;;;;;4.50;1.57;;;;;;;18.26;66.34;96151.91;5132309;27;20869;-59
2023/10/04 06:33:36;;;;;;;2.40;2.20;;;;;;;18.06;66.89;96119.28;5132125;27;20446;-59
2023/10/04 06:36:05;;;;;;;7.07;1.53;;;;;;;19.03;65.87;96151.97;5131736;27;20430;-58
2023/10/04 06:38:34;;;;;;;0.87;0.87;;;;;;;18.84;63.95;96152.13;5132363;28;20469;-58
2023/10/04 06:41:03;;;;;;;2.13;0.73;;;;;;;18.86;63.75;96117.69;5131853;28;21021;-59
2023/10/04 06:43:33;;;;;;;1.90;1.27;;;;;;;19.04;63.67;96129.38;5132428;27;20442;-58
2023/10/04 06:46:03;;;;;;;2.90;2.40;;;;;;;18.55;64.99;96151.63;5132616;28;20438;-58
2023/10/04 06:48:32;;;;;;;0.70;0.63;;;;;;;19.16;63.83;96158.41;5132700;27;20793;-58
2023/10/04 06:51:00;;;;;;;0.97;0.90;;;;;;;19.18;63.11;96150.84;5132218;28;20457;-57
2023/10/04 06:53:29;;;;;;;0.93;0.87;;;;;;;19.81;62.24;96132.69;5132097;28;20437;-57
2023/10/04 06:55:58;;;;;;;0.60;0.60;;;;;;;20.59;60.66;96148.09;5131957;28;20434;-57
2023/10/04 06:58:27;;;;;;;0.53;0.43;;;;;;;20.52;58.92;96146.97;5119930;28;20732;-57
2023/10/04 07:00:57;;;;;;;1.83;1.73;;;;;;;20.40;59.41;96131.41;5130933;28;20438;-58
2023/10/04 07:03:29;;;;;;;1.70;1.60;;;;;;;20.25;59.89;96140.72;5131885;28;20510;-58
2023/10/04 07:05:57;;;;;;;0.70;0.70;;;;;;;21.13;60.46;96135.25;5105859;28;20786;-58
2023/10/04 07:08:32;;;;;;;0.70;0.70;;;;;;;21.79;56.68;96131.28;5131410;27;20435;-58
2023/10/04 07:11:03;;;;;;;0.90;0.70;;;;;;;21.70;56.47;96125.09;5131833;27;20442;-58
2023/10/04 07:13:32;;;;;;;2.40;1.03;;;;;;;22.29;54.30;96128.81;5132561;27;20931;-58
2023/10/04 07:16:06;;;;;;;0.97;0.70;;;;;;;22.53;53.89;96124.41;5136218;27;20805;-58
2023/10/04 07:18:36;;;;;;;1.13;0.83;;;;;;;22.79;53.49;96128.91;5135900;27;20474;-51
2023/10/04 07:21:04;;;;;;;0.77;0.50;;;;;;;22.66;53.11;96128.81;5135704;27;20507;-57
2023/10/04 07:23:33;;;;;;;0.93;0.80;;;;;;;21.84;54.86;96136.50;5135360;27;20426;-56
2023/10/04 07:26:11;;;;;;;0.87;0.87;;;;;;;21.73;54.29;96127.94;5135773;27;20490;-56
2023/10/04 07:28:40;;;;;;;1.13;0.83;;;;;;;22.51;53.36;96115.84;5135752;27;20434;-56
2023/10/04 07:31:11;;;;;;;0.87;0.87;;;;;;;22.65;52.55;96115.63;5136006;27;20437;-57
2023/10/04 07:33:40;;;;;;;1.20;1.20;;;;;;;23.08;52.27;96107.22;5135639;27;20513;-57
2023/10/04 07:36:08;;;;;;;1.90;1.50;;;;;;;23.17;52.08;96121.50;5135513;27;20430;-58
2023/10/04 07:38:37;;;;;;;3.30;0.93;;;;;;;23.05;52.37;96116.78;5126706;27;20944;-58
2023/10/04 07:41:05;;;;;;;2.50;1.10;;;;;;;22.13;50.79;95985.44;5130999;27;20446;-58
2023/10/04 07:43:35;;;;;;;0.80;0.60;;;;;;;23.62;50.24;96117.03;5135205;27;21045;-59
2023/10/04 07:46:05;;;;;;;1.00;1.00;;;;;;;24.22;50.67;96113.69;5135353;27;20431;-59
2023/10/04 07:48:35;;;;;;;14.00;1.30;;;;;;;24.32;47.88;96117.88;5135859;27;20910;-59
2023/10/04 07:51:04;;;;;;;1.77;1.17;;;;;;;24.76;47.42;96108.88;5135364;27;20438;-60
2023/10/04 07:53:32;;;;;;;1.67;0.80;;;;;;;24.95;46.48;96100.97;5135613;27;20499;-59
2023/10/04 07:56:01;;;;;;;1.13;1.03;;;;;;;25.84;45.61;96105.13;5134982;27;20434;-59
2023/10/04 07:58:29;;;;;;;1.27;1.17;;;;;;;25.62;44.95;96045.94;5135092;27;20485;-59
2023/10/04 08:00:59;;;;;;;1.47;0.87;;;;;;;25.40;44.74;96098.03;5135038;27;20950;-59
2023/10/04 08:03:27;;;;;;;0.57;0.57;;;;;;;25.71;45.26;96064.78;5136048;27;20920;-58
2023/10/04 08:05:57;;;;;;;0.57;0.40;;;;;;;26.73;43.68;96082.91;5136314;27;20438;-58
2023/10/04 08:08:26;;;;;;;1.00;0.80;;;;;;;26.08;42.03;96087.09;5135145;27;20438;-57
2023/10/04 08:10:55;;;;;;;1.83;0.80;;;;;;;26.79;43.47;96084.25;5135027;27;20450;-59
2023/10/04 08:13:24;;;;;;;3.00;1.10;;;;;;;26.01;44.33;96076.06;5134403;27;20439;-57
2023/10/04 08:15:53;;;;;;;3.20;1.23;;;;;;;26.05;44.14;96071.50;5134143;27;20438;-58
2023/10/04 08:18:23;;;;;;;1.60;1.00;;;;;;;25.59;43.76;96083.84;5133765;27;20508;-58
2023/10/04 08:20:52;;;;;;;2.20;0.83;;;;;;;25.35;44.09;96079.25;5134439;27;20896;-58
2023/10/04 08:23:22;;;;;;;0.93;0.80;;;;;;;26.26;43.99;96067.41;5134728;27;20841;-58
2023/10/04 08:25:51;;;;;;;5.40;0.70;;;;;;;26.62;42.92;96077.19;5134080;27;20850;-58
2023/10/04 08:28:19;;;;;;;2.33;1.50;;;;;;;26.51;43.43;96072.66;5134635;27;20442;-58
2023/10/04 08:30:51;;;;;;;0.70;0.70;;;;;;;26.30;42.75;96075.66;5134605;27;20442;-58
2023/10/04 08:33:20;;;;;;;0.83;0.83;;;;;;;26.52;42.55;96066.88;5134320;27;20442;-58
2023/10/04 08:35:49;;;;;;;0.70;0.60;;;;;;;26.28;41.82;96073.31;5134551;27;20430;-58
2023/10/04 08:38:17;;;;;;;1.37;0.77;;;;;;;27.37;41.60;96066.84;5107868;27;20462;-58
2023/10/04 08:40:48;;;;;;;0.60;0.47;;;;;;;27.89;41.06;96057.34;5134225;27;20440;-58
2023/10/04 08:43:17;;;;;;;0.60;0.40;;;;;;;28.44;38.85;96009.66;5134387;27;21002;-58
2023/10/04 08:45:47;;;;;;;0.60;0.50;;;;;;;28.75;39.45;96051.06;5133958;27;20957;-58
2023/10/04 08:48:16;;;;;;;0.73;0.73;;;;;;;28.65;38.19;96048.97;5134247;27;20996;-59
2023/10/04 08:50:54;;;;;;;1.33;0.60;;;;;;;29.42;38.23;96041.03;5134423;27;20511;-58
2023/10/04 08:53:44;;;;;;;1.07;0.93;;;;;;;28.93;38.80;96038.44;5133137;27;20876;-58
2023/10/04 08:56:16;;;;;;;1.80;1.40;;;;;;;29.03;38.76;96022.56;5133828;27;20438;-59
2023/10/04 08:58:46;;;;;;;3.27;0.90;;;;;;;28.61;39.06;96022.78;5133849;27;20470;-58
2023/10/04 09:01:15;;;;;;;0.90;0.90;;;;;;;28.23;38.88;95997.22;5134455;27;20434;-58
2023/10/04 09:03:45;;;;;;;2.27;1.10;;;;;;;28.53;38.85;96018.34;5133824;27;20446;-58
2023/10/04 09:06:15;;;;;;;3.17;0.90;;;;;;;28.76;38.56;96008.97;5133923;27;20438;-59
2023/10/04 09:08:44;;;;;;;6.43;1.03;;;;;;;28.30;37.75;96005.53;5133383;27;20922;-58
2023/10/04 09:11:15;;;;;;;1.00;1.00;;;;;;;29.15;37.42;95995.81;5134091;27;20846;-58
2023/10/04 09:13:47;;;;;;;0.73;0.50;;;;;;;29.97;36.70;95994.81;5133636;27;20434;-58
2023/10/04 09:16:20;;;;;;;1.40;0.93;;;;;;;30.29;35.35;95984.13;5133755;27;20543;-58
2023/10/04 09:18:49;;;;;;;1.00;1.00;;;;;;;29.85;36.15;95975.97;5133372;27;20469;-58
2023/10/04 09:21:18;;;;;;;1.23;1.20;;;;;;;30.36;35.46;95995.16;5133834;27;20430;-58
2023/10/04 09:23:46;;;;;;;0.90;0.80;;;;;;;30.55;33.54;95986.69;5106563;27;20438;-59
2023/10/04 09:26:17;;;;;;;1.23;1.13;;;;;;;30.98;34.98;95974.06;5133613;27;21026;-58
2023/10/04 09:28:48;;;;;;;1.13;0.83;;;;;;;32.21;33.39;95977.13;5133548;27;20810;-58
2023/10/04 09:31:19;;;;;;;0.70;0.70;;;;;;;31.09;35.36;95972.94;5133359;27;20445;-58
2023/10/04 09:33:47;;;;;;;0.50;0.43;;;;;;;30.27;33.67;95975.53;5133429;27;20438;-58
2023/10/04 09:36:32;;;;;;;2.40;0.87;;;;;;;29.77;34.01;95969.63;5130013;27;20512;-58
2023/10/04 09:39:09;;;;;;;0.50;0.40;;;;;;;31.87;32.88;95968.47;5125646;27;20472;-57
2023/10/04 09:41:43;;;;;;;0.60;0.60;;;;;;;31.36;33.87;95968.75;5133227;27;20517;-58
2023/10/04 09:44:23;;;;;;;1.17;0.70;;;;;;;31.53;33.98;95972.72;5132169;27;20932;-58
2023/10/04 09:46:56;;;;;;;2.70;1.40;;;;;;;30.87;33.15;95937.59;5132946;27;20442;-58
2023/10/04 09:49:28;;;;;;;1.10;1.10;;;;;;;29.80;33.46;95968.91;5132865;27;20445;-58
2023/10/04 09:51:57;;;;;;;1.17;1.07;;;;;;;30.32;33.98;95962.28;5132921;27;20537;-56
2023/10/04 09:54:26;;;;;;;1.50;0.90;;;;;;;31.21;33.12;95969.06;5132696;27;20499;-56
2023/10/04 09:56:57;;;;;;;4.63;0.97;;;;;;;32.10;32.82;95961.84;5133154;27;20937;-58
2023/10/04 09:59:26;;;;;;;1.13;0.40;;;;;;;32.03;32.16;95959.88;5105404;27;20989;-58
2023/10/04 10:01:59;;;;;;;1.73;1.00;;;;;;;31.95;32.02;95964.53;5131915;27;20488;-58
2023/10/04 10:04:29;;;;;;;2.83;1.17;;;;;;;31.29;32.90;95960.50;5132902;27;20430;-57
2023/10/04 10:07:09;;;;;;;0.53;0.47;;;;;;;32.58;31.53;95952.03;5132677;27;20817;-57
2023/10/04 10:09:51;;;;;;;2.10;0.70;;;;;;;33.62;30.46;95943.81;5131915;27;20442;-56
2023/10/04 10:12:31;;;;;;;0.93;0.83;;;;;;;34.12;29.39;95944.25;5106927;27;20525;-57
2023/10/04 10:15:01;;;;;;;0.63;0.63;;;;;;;34.08;29.48;95931.72;5132406;27;20442;-57
2023/10/04 10:17:31;;;;;;;0.80;0.80;;;;;;;32.56;31.11;95933.19;5132623;27;20456;-56
2023/10/04 10:20:00;;;;;;;0.57;0.40;;;;;;;32.83;31.57;95930.00;5131804;27;20490;-57
2023/10/04 10:22:29;;;;;;;1.27;1.17;;;;;;;33.33;30.81;95894.84;5132531;27;20434;-58
2023/10/04 10:25:14;;;;;;;1.00;0.97;;;;;;;32.97;30.45;95913.44;5132124;27;20438;-57
2023/10/04 10:27:45;;;;;;;0.97;0.90;;;;;;;32.68;30.61;95910.03;5132296;28;20926;-58
2023/10/04 10:30:18;;;;;;;1.00;1.00;;;;;;;33.35;30.60;95907.00;5132521;27;20434;-64
2023/10/04 10:32:58;;;;;;;1.50;0.60;;;;;;;34.15;30.98;95912.38;5132396;28;20545;-64
2023/10/04 10:35:51;;;;;;;0.70;0.70;;;;;;;34.47;29.17;95899.88;5131984;27;20444;-64
2023/10/04 10:38:45;;;;;;;3.00;1.40;;;;;;;33.39;29.51;95910.53;5105071;28;20448;-65
2023/10/04 10:41:48;;;;;;;4.70;0.70;;;;;;;33.41;29.93;95902.66;5129953;28;20531;-64
2023/10/04 10:44:23;;;;;;;1.17;1.07;;;;;;;33.42;29.95;95898.72;5115748;28;20445;-64
2023/10/04 10:46:56;;;;;;;1.07;0.60;;;;;;;33.94;30.31;95885.03;5132348;28;20869;-64
2023/10/04 10:49:48;;;;;;;1.17;0.80;;;;;;;33.37;31.25;95888.16;5135311;27;20433;-64
2023/10/04 10:52:37;;;;;;;1.43;1.00;;;;;;;33.83;30.21;95876.84;5136444;27;20822;-63
2023/10/04 10:55:07;;;;;;;1.23;0.70;;;;;;;34.44;29.65;95877.88;5136798;27;20188;-64
2023/10/04 10:57:38;;;;;;;0.87;0.87;;;;;;;35.25;28.94;95876.16;5136328;27;20189;-63
2023/10/04 11:00:18;;;;;;;0.87;0.87;;;;;;;34.43;28.82;95871.59;5136149;27;20212;-63
2023/10/04 11:02:48;;;;;;;3.07;1.27;;;;;;;33.86;29.26;95876.03;5111099;27;20265;-63
2023/10/04 11:05:18;;;;;;;1.20;1.10;;;;;;;34.70;30.33;95857.94;5136422;27;20291;-63
2023/10/04 11:07:47;;;;;;;2.10;0.70;;;;;;;34.53;28.59;95858.91;5136462;27;20200;-63
2023/10/04 11:10:17;;;;;;;0.83;0.67;;;;;;;33.36;30.13;95847.34;5135938;27;20204;-62
2023/10/04 11:12:46;;;;;;;2.40;1.37;;;;;;;33.28;30.01;95852.09;5136028;27;20193;-62
2023/10/04 11:15:18;;;;;;;1.77;0.60;;;;;;;34.16;30.30;95847.88;5135558;27;20257;-63
2023/10/04 11:17:47;;;;;;;1.43;0.87;;;;;;;34.17;28.66;95833.75;5136377;27;20199;-63
2023/10/04 11:20:18;;;;;;;1.53;1.43;;;;;;;34.18;28.82;95834.53;5135863;27;20222;-63
2023/10/04 11:22:47;;;;;;;0.53;0.53;;;;;;;35.38;28.56;95831.06;5136160;27;20204;-63
2023/10/04 11:25:16;;;;;;;0.60;0.50;;;;;;;35.51;28.01;95826.53;5132700;27;20196;-64
2023/10/04 11:27:48;;;;;;;1.80;1.13;;;;;;;34.74;29.61;95835.84;5135515;27;20821;-63
2023/10/04 11:30:21;;;;;;;0.70;0.70;;;;;;;34.90;28.56;95820.31;5109718;27;20219;-64
2023/10/04 11:32:50;;;;;;;0.90;0.87;;;;;;;35.03;29.38;95826.81;5135150;27;20571;-62
2023/10/04 11:35:20;;;;;;;1.10;1.10;;;;;;;34.48;29.54;95807.81;5135685;27;20279;-63
2023/10/04 11:37:50;;;;;;;1.47;1.37;;;;;;;34.86;28.49;95814.06;5135271;27;20189;-63
2023/10/04 11:40:22;;;;;;;2.03;0.83;;;;;;;34.45;30.00;95813.38;5126504;27;20244;-63
2023/10/04 11:42:59;;;;;;;1.23;0.70;;;;;;;34.28;28.93;95808.88;5133054;27;20575;-63
2023/10/04 11:45:31;;;;;;;1.43;1.07;;;;;;;34.06;30.77;95752.47;5135160;27;20189;-61
2023/10/04 11:48:03;;;;;;;1.13;0.60;;;;;;;34.86;28.83;95799.53;5135739;27;20258;-61